createdAt,value
2023-03-28T00:00:58.837Z,28.20
2023-03-28T00:03:29.598Z,35.63
2023-03-28T00:06:00.943Z,28.20
2023-03-28T00:08:29.561Z,25.60
2023-03-28T00:11:06.442Z,26.70
2023-03-28T00:13:34.704Z,34.13
2023-03-28T00:16:07.980Z,27.40
2023-03-28T00:18:38.936Z,23.73
2023-03-28T00:21:17.814Z,30.50
2023-03-28T00:23:45.850Z,20.90
2023-03-28T00:26:14.212Z,21.55
2023-03-28T00:28:42.209Z,26.75
2023-03-28T00:31:10.376Z,31.38
2023-03-28T00:33:39.747Z,23.88
2023-03-28T00:36:10.352Z,23.42
2023-03-28T00:38:39.493Z,23.95
2023-03-28T00:41:10.351Z,26.58
2023-03-28T00:43:40.875Z,30.35
2023-03-28T00:46:14.503Z,29.20
2023-03-28T00:48:50.322Z,22.42
2023-03-28T00:51:21.559Z,33.28
2023-03-28T00:53:50.349Z,27.88
2023-03-28T00:56:20.714Z,28.60
2023-03-28T00:58:49.784Z,27.77
2023-03-28T01:01:20.955Z,31.33
2023-03-28T01:03:56.169Z,33.53
2023-03-28T01:06:26.199Z,27.33
2023-03-28T01:08:55.563Z,30.63
2023-03-28T01:11:24.906Z,28.95
2023-03-28T01:13:54.325Z,35.65
2023-03-28T01:16:23.688Z,28.20
2023-03-28T01:18:52.999Z,30.40
2023-03-28T01:21:48.678Z,33.65
2023-03-28T01:24:53.402Z,30.50
2023-03-28T01:27:25.341Z,33.30
2023-03-28T01:30:34.060Z,31.15
2023-03-28T01:33:19.409Z,34.33
2023-03-28T01:36:11.798Z,34.00
2023-03-28T01:39:05.831Z,32.97
2023-03-28T01:41:41.941Z,32.08
2023-03-28T01:44:12.705Z,37.72
2023-03-28T01:46:45.913Z,42.72
2023-03-28T01:49:21.538Z,33.88
2023-03-28T01:51:54.831Z,34.38
2023-03-28T01:54:30.989Z,37.92
2023-03-28T01:57:04.542Z,37.40
2023-03-28T01:59:36.992Z,40.58
2023-03-28T02:02:08.532Z,33.20
2023-03-28T02:04:38.294Z,33.08
2023-03-28T02:07:08.895Z,39.75
2023-03-28T02:09:40.296Z,47.17
2023-03-28T02:12:13.167Z,27.08
2023-03-28T02:14:43.380Z,36.53
2023-03-28T02:17:15.570Z,41.00
2023-03-28T02:19:48.577Z,37.67
2023-03-28T02:22:24.289Z,38.95
2023-03-28T02:24:54.166Z,42.63
2023-03-28T02:27:22.727Z,40.42
2023-03-28T02:29:51.266Z,38.17
2023-03-28T02:32:21.977Z,40.45
2023-03-28T02:34:51.428Z,38.85
2023-03-28T02:37:29.319Z,40.28
2023-03-28T02:40:07.638Z,34.28
2023-03-28T02:42:56.874Z,45.35
2023-03-28T02:45:37.547Z,40.15
2023-03-28T02:48:14.515Z,34.95
2023-03-28T02:50:48.749Z,39.85
2023-03-28T02:53:27.239Z,32.15
2023-03-28T02:55:59.442Z,39.42
2023-03-28T02:58:30.404Z,39.00
2023-03-28T03:00:58.620Z,44.08
2023-03-28T03:03:26.602Z,40.30
2023-03-28T03:05:54.984Z,39.15
2023-03-28T03:08:22.937Z,38.67
2023-03-28T03:10:51.190Z,36.97
2023-03-28T03:13:20.894Z,45.40
2023-03-28T03:15:49.361Z,42.45
2023-03-28T03:18:17.813Z,33.83
2023-03-28T03:20:46.650Z,39.75
2023-03-28T03:23:14.964Z,34.58
2023-03-28T03:25:43.695Z,27.25
2023-03-28T03:28:11.888Z,35.58
2023-03-28T03:30:41.414Z,39.30
2023-03-28T03:33:10.560Z,36.83
2023-03-28T03:35:42.063Z,38.75
2023-03-28T03:38:10.255Z,28.60
2023-03-28T03:40:38.428Z,39.33
2023-03-28T03:43:06.313Z,29.13
2023-03-28T03:45:34.522Z,30.92
2023-03-28T03:48:03.909Z,35.15
2023-03-28T03:50:32.251Z,32.35
2023-03-28T03:53:00.822Z,29.73
2023-03-28T03:55:28.974Z,29.67
2023-03-28T03:57:57.153Z,25.05
2023-03-28T04:00:25.745Z,27.13
2023-03-28T04:02:53.711Z,33.78
2023-03-28T04:05:23.568Z,30.95
2023-03-28T04:07:51.651Z,30.70
2023-03-28T04:10:19.962Z,26.30
2023-03-28T04:12:47.884Z,33.00
2023-03-28T04:15:16.180Z,31.42
2023-03-28T04:17:44.487Z,32.72
2023-03-28T04:20:13.881Z,33.78
2023-03-28T04:22:45.954Z,23.60
2023-03-28T04:25:15.014Z,19.40
2023-03-28T04:27:47.028Z,29.48
2023-03-28T04:30:18.195Z,24.02
2023-03-28T04:32:49.373Z,24.90
2023-03-28T04:35:17.841Z,23.77
2023-03-28T04:37:49.213Z,24.25
2023-03-28T04:40:17.747Z,26.95
2023-03-28T04:42:45.807Z,19.92
2023-03-28T04:45:16.454Z,20.02
2023-03-28T04:47:46.001Z,22.60
2023-03-28T04:50:14.243Z,17.75
2023-03-28T04:52:42.132Z,18.85
2023-03-28T04:55:12.079Z,20.70
2023-03-28T04:57:40.370Z,20.13
2023-03-28T05:00:10.673Z,16.98
2023-03-28T05:02:38.673Z,17.05
2023-03-28T05:05:07.797Z,18.40
2023-03-28T05:07:36.708Z,22.55
2023-03-28T05:10:06.134Z,16.17
2023-03-28T05:12:35.687Z,21.05
2023-03-28T05:15:04.255Z,19.20
2023-03-28T05:17:32.199Z,17.45
2023-03-28T05:20:00.490Z,20.77
2023-03-28T05:22:28.397Z,19.05
2023-03-28T05:24:56.917Z,24.13
2023-03-28T05:27:24.908Z,21.33
2023-03-28T05:29:54.455Z,21.70
2023-03-28T05:32:22.363Z,17.60
2023-03-28T05:34:50.639Z,15.48
2023-03-28T05:37:18.557Z,15.90
2023-03-28T05:39:46.767Z,16.77
2023-03-28T05:42:14.920Z,18.65
2023-03-28T05:44:43.248Z,21.25
2023-03-28T05:47:12.463Z,12.55
2023-03-28T05:49:40.959Z,14.95
2023-03-28T05:52:09.042Z,22.73
2023-03-28T05:54:37.205Z,16.67
2023-03-28T05:57:05.670Z,21.48
2023-03-28T05:59:33.906Z,17.30
2023-03-28T06:02:03.353Z,23.83
2023-03-28T06:04:33.471Z,17.27
2023-03-28T06:07:03.175Z,14.02
2023-03-28T06:09:31.598Z,15.70
2023-03-28T06:11:59.747Z,15.55
2023-03-28T06:14:28.001Z,9.55
2023-03-28T06:16:56.107Z,15.35
2023-03-28T06:19:24.730Z,14.25
2023-03-28T06:21:54.196Z,12.93
2023-03-28T06:24:22.348Z,16.38
2023-03-28T06:26:50.854Z,19.83
2023-03-28T06:29:19.896Z,16.40
2023-03-28T06:31:47.961Z,18.65
2023-03-28T06:34:17.189Z,16.77
2023-03-28T06:36:45.097Z,20.63
2023-03-28T06:39:14.759Z,18.67
2023-03-28T06:41:42.879Z,16.23
2023-03-28T06:44:11.443Z,15.93
2023-03-28T06:46:39.519Z,17.17
2023-03-28T06:49:07.934Z,16.00
2023-03-28T06:51:35.938Z,13.25
2023-03-28T06:54:04.179Z,18.17
2023-03-28T06:56:34.146Z,22.63
2023-03-28T06:59:02.303Z,24.42
2023-03-28T07:01:30.605Z,17.65
2023-03-28T07:03:59.689Z,19.38
2023-03-28T07:06:28.646Z,17.95
2023-03-28T07:08:58.232Z,19.00
2023-03-28T07:11:27.015Z,27.27
2023-03-28T07:13:56.517Z,20.95
2023-03-28T07:16:24.512Z,21.02
2023-03-28T07:18:52.801Z,18.92
2023-03-28T07:21:20.904Z,24.30
2023-03-28T07:23:49.081Z,21.23
2023-03-28T07:26:17.769Z,20.52
2023-03-28T07:28:45.953Z,25.30
2023-03-28T07:31:15.734Z,26.17
2023-03-28T07:33:44.459Z,24.70
2023-03-28T07:36:15.632Z,22.08
2023-03-28T07:38:44.549Z,24.93
2023-03-28T07:41:14.468Z,13.90
2023-03-28T07:43:42.809Z,13.18
2023-03-28T07:46:14.003Z,22.70
2023-03-28T07:48:45.630Z,12.50
2023-03-28T07:51:14.292Z,9.35
2023-03-28T07:53:42.943Z,7.03
2023-03-28T07:56:12.293Z,10.32
2023-03-28T07:58:41.730Z,8.75
2023-03-28T08:01:11.998Z,7.95
2023-03-28T08:03:43.321Z,13.68
2023-03-28T08:06:28.709Z,10.00
2023-03-28T08:09:01.001Z,8.13
2023-03-28T08:11:29.381Z,18.00
2023-03-28T08:13:57.928Z,16.75
2023-03-28T08:16:26.127Z,16.73
2023-03-28T08:19:03.976Z,15.98
2023-03-28T08:21:39.283Z,18.63
2023-03-28T08:24:12.855Z,11.43
2023-03-28T08:26:44.061Z,15.10
2023-03-28T08:29:12.871Z,13.77
2023-03-28T08:31:40.759Z,9.98
2023-03-28T08:34:10.735Z,11.93
2023-03-28T08:36:38.658Z,7.63
2023-03-28T08:39:07.136Z,13.90
2023-03-28T08:41:48.230Z,8.38
2023-03-28T08:44:33.123Z,4.63
2023-03-28T08:47:05.025Z,6.93
2023-03-28T08:49:36.956Z,8.48
2023-03-28T08:52:06.683Z,5.75
2023-03-28T08:54:38.677Z,11.52
2023-03-28T08:57:08.049Z,6.97
2023-03-28T08:59:43.510Z,9.10
2023-03-28T09:02:18.686Z,10.85
2023-03-28T09:04:49.312Z,8.27
2023-03-28T09:07:24.165Z,11.35
2023-03-28T09:10:01.008Z,9.32
2023-03-28T09:12:41.163Z,6.90
2023-03-28T09:15:40.410Z,5.72
2023-03-28T09:18:37.181Z,7.80
2023-03-28T09:21:13.007Z,8.43
2023-03-28T09:23:57.132Z,7.13
2023-03-28T09:26:27.495Z,6.10
2023-03-28T09:28:59.754Z,4.82
2023-03-28T09:31:29.264Z,2.38
2023-03-28T09:34:00.018Z,3.28
2023-03-28T09:36:45.536Z,2.47
2023-03-28T09:39:20.877Z,3.30
2023-03-28T09:44:24.332Z,1.50
2023-03-28T09:46:53.661Z,2.13
2023-03-28T09:49:23.785Z,3.53
2023-03-28T09:51:56.049Z,8.43
2023-03-28T09:54:29.524Z,4.57
2023-03-28T09:57:01.690Z,6.50
2023-03-28T09:59:31.114Z,6.55
2023-03-28T10:02:02.270Z,5.28
2023-03-28T10:04:36.887Z,4.57
2023-03-28T10:07:28.433Z,4.93
2023-03-28T10:09:58.424Z,5.32
2023-03-28T10:12:32.718Z,4.00
2023-03-28T10:15:01.120Z,4.95
2023-03-28T10:17:31.080Z,5.53
2023-03-28T10:20:01.563Z,3.83
2023-03-28T10:22:33.863Z,5.43
2023-03-28T10:25:02.058Z,3.67
2023-03-28T10:27:32.779Z,3.03
2023-03-28T10:30:10.060Z,4.97
2023-03-28T10:32:38.567Z,5.32
2023-03-28T10:35:10.035Z,7.63
2023-03-28T10:37:43.763Z,6.50
2023-03-28T10:40:26.520Z,7.13
2023-03-28T10:42:55.034Z,6.68
2023-03-28T10:45:24.958Z,7.85
2023-03-28T10:47:55.706Z,6.45
2023-03-28T10:50:28.455Z,5.47
2023-03-28T10:53:10.927Z,10.55
2023-03-28T10:55:40.586Z,6.35
2023-03-28T10:58:13.206Z,6.63
2023-03-28T11:00:43.533Z,4.13
2023-03-28T11:03:19.872Z,5.93
2023-03-28T11:06:08.023Z,2.05
2023-03-28T11:08:46.082Z,2.35
2023-03-28T11:11:28.310Z,4.05
2023-03-28T11:14:01.072Z,2.83
2023-03-28T11:19:10.744Z,5.45
2023-03-28T11:21:44.829Z,6.95
2023-03-28T11:24:24.216Z,3.83
2023-03-28T11:27:12.528Z,5.88
2023-03-28T11:29:49.338Z,5.63
2023-03-28T11:32:20.747Z,5.57
2023-03-28T11:34:59.212Z,5.32
2023-03-28T11:37:29.527Z,6.18
2023-03-28T11:40:02.657Z,5.20
2023-03-28T11:42:37.483Z,2.72
2023-03-28T11:45:09.312Z,5.35
2023-03-28T11:47:40.206Z,4.33
2023-03-28T11:50:15.086Z,2.78
2023-03-28T11:52:48.074Z,4.43
2023-03-28T11:55:20.795Z,3.63
2023-03-28T12:03:02.010Z,5.00
2023-03-28T12:05:33.388Z,5.55
2023-03-28T12:08:08.001Z,4.25
2023-03-28T12:10:39.868Z,3.83
2023-03-28T12:13:12.593Z,4.85
2023-03-28T12:15:46.551Z,3.10
2023-03-28T12:18:18.996Z,3.63
2023-03-28T12:20:52.285Z,5.57
2023-03-28T12:23:25.399Z,5.90
2023-03-28T12:26:01.977Z,5.47
2023-03-28T12:28:37.107Z,8.52
2023-03-28T12:31:08.592Z,6.80
2023-03-28T12:33:44.621Z,5.93
2023-03-28T12:36:19.294Z,4.05
2023-03-28T12:38:55.771Z,2.47
2023-03-28T12:41:28.472Z,4.82
2023-03-28T12:46:28.783Z,3.30
2023-03-28T12:48:59.880Z,2.85
2023-03-28T12:51:31.681Z,3.05
2023-03-28T12:54:08.203Z,6.67
2023-03-28T12:56:38.134Z,5.45
2023-03-28T12:59:37.069Z,4.03
2023-03-28T13:02:10.635Z,8.73
2023-03-28T13:04:44.976Z,8.68
2023-03-28T13:07:18.736Z,8.50
2023-03-28T13:10:00.958Z,7.28
2023-03-28T13:15:04.400Z,9.43
2023-03-28T13:17:35.061Z,7.50
2023-03-28T13:20:09.629Z,12.70
2023-03-28T13:22:44.218Z,11.02
2023-03-28T13:25:28.929Z,10.30
2023-03-28T13:28:00.607Z,12.45
2023-03-28T13:30:30.130Z,9.70
2023-03-28T13:33:00.449Z,7.82
2023-03-28T13:35:40.949Z,9.65
2023-03-28T13:38:25.277Z,7.45
2023-03-28T13:40:55.954Z,6.85
2023-03-28T13:43:30.477Z,7.63
2023-03-28T13:46:01.298Z,6.18
2023-03-28T13:48:34.685Z,4.53
2023-03-28T13:51:06.693Z,5.45
2023-03-28T13:53:47.139Z,4.63
2023-03-28T13:56:23.542Z,6.93
2023-03-28T13:58:55.521Z,4.38
2023-03-28T14:01:25.871Z,4.82
2023-03-28T14:03:55.993Z,5.85
2023-03-28T14:06:26.319Z,3.58
2023-03-28T14:08:56.283Z,3.17
2023-03-28T14:11:30.515Z,5.25
2023-03-28T14:14:08.833Z,5.55
2023-03-28T14:16:39.084Z,4.47
2023-03-28T14:19:08.603Z,6.43
2023-03-28T14:21:36.753Z,3.70
2023-03-28T14:24:07.664Z,4.38
2023-03-28T14:26:36.712Z,4.90
2023-03-28T14:29:08.542Z,2.78
2023-03-28T14:31:38.382Z,6.43
2023-03-28T14:34:24.529Z,3.92
2023-03-28T14:36:58.840Z,4.97
2023-03-28T14:39:28.325Z,3.50
2023-03-28T14:41:56.863Z,3.95
2023-03-28T14:44:27.136Z,3.72
2023-03-28T14:46:58.118Z,3.22
2023-03-28T14:49:27.079Z,3.97
2023-03-28T14:51:56.930Z,3.10
2023-03-28T14:54:28.620Z,5.25
2023-03-28T14:56:58.418Z,2.50
2023-03-28T14:59:34.986Z,2.60
2023-03-28T15:02:05.769Z,2.17
2023-03-28T15:04:34.283Z,3.08
2023-03-28T15:07:02.261Z,3.00
2023-03-28T15:09:32.722Z,3.85
2023-03-28T15:12:04.348Z,2.22
2023-03-28T15:14:38.315Z,4.10
2023-03-28T15:17:06.704Z,4.68
2023-03-28T15:19:37.726Z,4.78
2023-03-28T15:22:09.799Z,6.57
2023-03-28T15:24:39.059Z,4.30
2023-03-28T15:27:08.685Z,5.45
2023-03-28T15:29:40.885Z,10.95
2023-03-28T15:32:15.991Z,5.32
2023-03-28T15:34:46.335Z,4.50
2023-03-28T15:37:17.182Z,2.97
2023-03-28T15:39:49.533Z,2.58
2023-03-28T15:45:29.864Z,3.92
2023-03-28T15:47:58.528Z,7.00
2023-03-28T15:50:33.135Z,7.55
2023-03-28T15:53:01.966Z,9.98
2023-03-28T15:55:32.065Z,8.30
2023-03-28T15:58:00.479Z,11.15
2023-03-28T16:00:45.587Z,8.43
2023-03-28T16:03:34.639Z,6.90
2023-03-28T16:06:32.431Z,8.07
2023-03-28T16:09:16.757Z,16.55
2023-03-28T16:11:45.420Z,8.68
2023-03-28T16:14:15.688Z,10.27
2023-03-28T16:16:46.586Z,7.07
2023-03-28T16:19:20.907Z,9.00
2023-03-28T16:21:49.766Z,6.97
2023-03-28T16:24:19.699Z,10.23
2023-03-28T16:26:48.274Z,4.53
2023-03-28T16:29:16.390Z,3.70
2023-03-28T16:31:46.417Z,9.02
2023-03-28T16:34:14.430Z,7.68
2023-03-28T16:36:42.877Z,6.55
2023-03-28T16:39:11.496Z,9.07
2023-03-28T16:41:39.693Z,12.90
2023-03-28T16:44:08.175Z,12.90
2023-03-28T16:46:36.573Z,9.80
2023-03-28T16:49:05.868Z,8.00
2023-03-28T16:51:34.238Z,11.52
2023-03-28T16:54:02.319Z,11.73
2023-03-28T16:56:31.368Z,17.42
2023-03-28T16:58:59.712Z,11.65
2023-03-28T17:01:28.223Z,14.82
2023-03-28T17:03:56.163Z,14.32
2023-03-28T17:06:27.475Z,15.38
2023-03-28T17:08:56.190Z,13.45
2023-03-28T17:11:25.646Z,15.65
2023-03-28T17:13:55.186Z,14.93
2023-03-28T17:16:24.123Z,23.63
2023-03-28T17:18:53.624Z,22.88
2023-03-28T17:21:22.149Z,23.35
2023-03-28T17:23:52.746Z,28.42
2023-03-28T17:26:21.498Z,28.33
2023-03-28T17:28:50.893Z,26.05
2023-03-28T17:31:21.069Z,23.73
2023-03-28T17:33:49.466Z,28.15
2023-03-28T17:36:21.756Z,28.95
2023-03-28T17:38:52.680Z,28.00
2023-03-28T17:41:23.164Z,32.95
2023-03-28T17:43:52.135Z,29.48
2023-03-28T17:46:21.302Z,24.95
2023-03-28T17:48:49.766Z,24.20
2023-03-28T17:51:19.134Z,27.00
2023-03-28T17:53:47.709Z,27.42
2023-03-28T17:56:17.836Z,26.13
2023-03-28T17:58:46.510Z,31.20
2023-03-28T18:01:16.495Z,26.15
2023-03-28T18:03:45.967Z,28.02
2023-03-28T18:06:15.170Z,22.02
2023-03-28T18:08:44.689Z,20.92
2023-03-28T18:11:14.757Z,23.27
2023-03-28T18:13:44.963Z,26.00
2023-03-28T18:16:18.258Z,23.67
2023-03-28T18:18:47.228Z,30.73
2023-03-28T18:21:15.651Z,25.40
2023-03-28T18:23:43.902Z,31.58
2023-03-28T18:26:12.473Z,27.17
2023-03-28T18:28:40.742Z,27.08
2023-03-28T18:31:12.770Z,29.63
2023-03-28T18:33:42.864Z,18.55
2023-03-28T18:36:11.963Z,26.83
2023-03-28T18:38:42.503Z,28.02
2023-03-28T18:41:12.391Z,30.80
2023-03-28T18:43:42.074Z,39.30
2023-03-28T18:46:15.932Z,53.92
2023-03-28T18:48:45.267Z,53.55
2023-03-28T18:51:13.596Z,51.50
2023-03-28T18:53:41.586Z,35.15
2023-03-28T18:56:13.243Z,33.17
2023-03-28T18:58:41.536Z,30.97
2023-03-28T19:01:11.925Z,22.17
2023-03-28T19:03:42.279Z,21.57
2023-03-28T19:06:12.868Z,24.48
2023-03-28T19:08:41.276Z,19.30
2023-03-28T19:11:11.699Z,19.67
2023-03-28T19:13:40.531Z,20.08
2023-03-28T19:16:12.398Z,26.02
2023-03-28T19:18:42.396Z,19.27
2023-03-28T19:21:12.002Z,18.88
2023-03-28T19:23:40.465Z,20.17
2023-03-28T19:26:10.951Z,22.05
2023-03-28T19:28:39.135Z,27.60
2023-03-28T19:31:09.171Z,27.02
2023-03-28T19:33:40.603Z,23.85
2023-03-28T19:36:09.666Z,25.75
2023-03-28T19:38:39.232Z,26.48
2023-03-28T19:41:10.828Z,20.27
2023-03-28T19:43:40.192Z,20.75
2023-03-28T19:46:10.310Z,16.90
2023-03-28T19:48:41.399Z,16.50
2023-03-28T19:51:09.959Z,19.00
2023-03-28T19:53:37.948Z,21.85
2023-03-28T19:56:07.132Z,24.50
2023-03-28T19:58:35.344Z,25.55
2023-03-28T20:01:04.079Z,24.63
2023-03-28T20:03:32.482Z,26.48
2023-03-28T20:06:06.209Z,23.42
2023-03-28T20:08:34.709Z,25.48
2023-03-28T20:11:03.705Z,19.05
2023-03-28T20:13:31.930Z,18.77
2023-03-28T20:16:03.661Z,19.83
2023-03-28T20:18:32.613Z,21.23
2023-03-28T20:21:05.547Z,28.55
2023-03-28T20:23:34.111Z,27.73
2023-03-28T20:26:14.138Z,26.48
2023-03-28T20:28:42.210Z,22.50
2023-03-28T20:31:14.035Z,20.63
2023-03-28T20:33:42.240Z,17.90
2023-03-28T20:36:12.180Z,22.52
2023-03-28T20:38:40.499Z,20.15
2023-03-28T20:41:12.294Z,17.75
2023-03-28T20:43:47.213Z,27.08
2023-03-28T20:46:18.966Z,16.80
2023-03-28T20:48:48.048Z,17.73
2023-03-28T20:51:18.662Z,19.05
2023-03-28T20:53:49.345Z,19.65
2023-03-28T20:56:18.887Z,9.50
2023-03-28T20:58:47.292Z,15.35
2023-03-28T21:01:17.420Z,12.52
2023-03-28T21:03:49.742Z,13.25
2023-03-28T21:06:21.417Z,12.63
2023-03-28T21:08:50.992Z,11.97
2023-03-28T21:11:22.104Z,9.95
2023-03-28T21:13:50.364Z,14.77
2023-03-28T21:16:19.102Z,12.43
2023-03-28T21:18:47.923Z,12.02
2023-03-28T21:21:17.673Z,10.80
2023-03-28T21:23:47.932Z,14.35
2023-03-28T21:26:17.799Z,16.38
2023-03-28T21:28:46.429Z,13.15
2023-03-28T21:31:16.318Z,11.02
2023-03-28T21:33:44.498Z,13.55
2023-03-28T21:36:16.038Z,11.15
2023-03-28T21:38:44.849Z,12.13
2023-03-28T21:41:14.566Z,10.13
2023-03-28T21:43:42.570Z,13.35
2023-03-28T21:46:11.413Z,13.48
2023-03-28T21:48:39.698Z,15.00
2023-03-28T21:51:08.481Z,11.80
2023-03-28T21:53:37.994Z,14.18
2023-03-28T21:56:09.459Z,13.07
2023-03-28T21:58:39.787Z,10.07
2023-03-28T22:01:08.237Z,15.10
2023-03-28T22:03:38.189Z,11.55
2023-03-28T22:06:07.823Z,9.88
2023-03-28T22:08:36.099Z,11.52
2023-03-28T22:11:10.872Z,16.40
2023-03-28T22:13:40.202Z,9.90
2023-03-28T22:16:12.638Z,14.10
2023-03-28T22:21:13.877Z,12.18
2023-03-28T22:23:42.889Z,13.05
2023-03-28T22:26:12.514Z,13.18
2023-03-28T22:28:41.827Z,13.65
2023-03-28T22:31:10.300Z,16.08
2023-03-28T22:33:38.341Z,13.80
2023-03-28T22:36:07.313Z,15.10
2023-03-28T22:38:35.466Z,18.27
2023-03-28T22:41:04.266Z,16.30
2023-03-28T22:43:33.425Z,16.45
2023-03-28T22:46:03.103Z,22.00
2023-03-28T22:48:31.330Z,17.42
2023-03-28T22:51:00.682Z,16.40
2023-03-28T22:53:29.221Z,18.85
2023-03-28T22:55:57.959Z,22.27
2023-03-28T22:58:26.334Z,21.98
2023-03-28T23:00:55.018Z,22.77
2023-03-28T23:03:24.298Z,22.45
2023-03-28T23:05:55.075Z,32.35
2023-03-28T23:08:23.556Z,23.40
2023-03-28T23:10:51.958Z,19.25
2023-03-28T23:13:20.150Z,26.95
2023-03-28T23:15:48.529Z,30.08
2023-03-28T23:18:16.476Z,25.95
2023-03-28T23:20:50.920Z,26.33
2023-03-28T23:23:19.190Z,24.58
2023-03-28T23:25:48.145Z,23.55
2023-03-28T23:28:18.327Z,18.15
2023-03-28T23:30:48.398Z,27.27
2023-03-28T23:33:18.634Z,30.92
2023-03-28T23:35:48.411Z,24.92
2023-03-28T23:38:17.634Z,28.17
2023-03-28T23:40:46.209Z,28.27
2023-03-28T23:43:14.215Z,21.45
2023-03-28T23:45:43.000Z,29.33
2023-03-28T23:48:11.280Z,27.15
2023-03-28T23:50:39.432Z,22.23
2023-03-28T23:53:09.320Z,23.83
2023-03-28T23:55:37.587Z,23.65
2023-03-28T23:58:05.600Z,21.17
